sensor_id;sensor_type;location;lat;lon;timestamp;pressure;altitude;pressure_sealevel;temperature;humidity
11011;BME280;5558;42.702;23.178;2023-05-22T00:00:12;93435.19;;;12.68;100.00
11011;BME280;5558;42.702;23.178;2023-05-22T00:02:41;93435.34;;;12.76;100.00
11011;BME280;5558;42.702;23.178;2023-05-22T00:05:09;93440.09;;;12.79;100.00
11011;BME280;5558;42.702;23.178;2023-05-22T00:07:37;93434.84;;;12.74;100.00
11011;BME280;5558;42.702;23.178;2023-05-22T00:10:04;93440.09;;;12.79;100.00
11011;BME280;5558;42.702;23.178;2023-05-22T00:12:31;93431.84;;;12.81;100.00
11011;BME280;5558;42.702;23.178;2023-05-22T00:14:58;93435.66;;;12.75;100.00
11011;BME280;5558;42.702;23.178;2023-05-22T00:17:25;93434.91;;;12.69;100.00
11011;BME280;5558;42.702;23.178;2023-05-22T00:19:56;93437.63;;;12.64;100.00
11011;BME280;5558;42.702;23.178;2023-05-22T00:22:28;93438.31;;;12.75;100.00
11011;BME280;5558;42.702;23.178;2023-05-22T00:24:56;93439.81;;;12.81;100.00
11011;BME280;5558;42.702;23.178;2023-05-22T00:27:22;93437.44;;;12.79;100.00
11011;BME280;5558;42.702;23.178;2023-05-22T00:29:49;93442.53;;;12.76;100.00
11011;BME280;5558;42.702;23.178;2023-05-22T00:32:16;93440.03;;;12.61;100.00
11011;BME280;5558;42.702;23.178;2023-05-22T00:34:42;93437.81;;;12.44;100.00
11011;BME280;5558;42.702;23.178;2023-05-22T00:37:10;93447.94;;;12.42;100.00
11011;BME280;5558;42.702;23.178;2023-05-22T00:39:37;93451.94;;;12.40;100.00
11011;BME280;5558;42.702;23.178;2023-05-22T00:42:04;93447.59;;;12.49;100.00
11011;BME280;5558;42.702;23.178;2023-05-22T00:44:31;93417.47;;;12.35;100.00
11011;BME280;5558;42.702;23.178;2023-05-22T00:46:58;93447.50;;;12.59;100.00
11011;BME280;5558;42.702;23.178;2023-05-22T00:49:25;93443.25;;;12.58;100.00
11011;BME280;5558;42.702;23.178;2023-05-22T00:51:51;93438.94;;;12.62;100.00
11011;BME280;5558;42.702;23.178;2023-05-22T00:54:20;93451.78;;;12.55;100.00
11011;BME280;5558;42.702;23.178;2023-05-22T00:56:47;93447.50;;;12.59;100.00
11011;BME280;5558;42.702;23.178;2023-05-22T00:59:14;93449.72;;;12.47;100.00
11011;BME280;5558;42.702;23.178;2023-05-22T01:01:42;93415.16;;;12.28;100.00
11011;BME280;5558;42.702;23.178;2023-05-22T01:04:10;93440.66;;;12.53;100.00
11011;BME280;5558;42.702;23.178;2023-05-22T01:06:37;93448.00;;;12.61;100.00
11011;BME280;5558;42.702;23.178;2023-05-22T01:09:06;93429.25;;;12.52;100.00
11011;BME280;5558;42.702;23.178;2023-05-22T01:11:39;93436.81;;;12.64;100.00
11011;BME280;5558;42.702;23.178;2023-05-22T01:14:15;93439.06;;;12.75;100.00
11011;BME280;5558;42.702;23.178;2023-05-22T01:16:51;93405.34;;;12.52;100.00
11011;BME280;5558;42.702;23.178;2023-05-22T01:19:37;93439.34;;;12.74;100.00
11011;BME280;5558;42.702;23.178;2023-05-22T01:22:25;93431.91;;;12.76;100.00
11011;BME280;5558;42.702;23.178;2023-05-22T01:25:10;93431.16;;;12.70;100.00
11011;BME280;5558;42.702;23.178;2023-05-22T01:28:10;93428.13;;;12.58;100.00
11011;BME280;5558;42.702;23.178;2023-05-22T01:30:47;93431.44;;;12.45;100.00
11011;BME280;5558;42.702;23.178;2023-05-22T01:33:16;93429.97;;;12.34;100.00
11011;BME280;5558;42.702;23.178;2023-05-22T01:35:46;93422.88;;;12.24;100.00
11011;BME280;5558;42.702;23.178;2023-05-22T01:38:14;93423.16;;;12.23;100.00
11011;BME280;5558;42.702;23.178;2023-05-22T01:40:42;93406.84;;;12.06;100.00
11011;BME280;5558;42.702;23.178;2023-05-22T01:43:10;93416.38;;;12.12;100.00
11011;BME280;5558;42.702;23.178;2023-05-22T01:45:38;93422.00;;;12.05;100.00
11011;BME280;5558;42.702;23.178;2023-05-22T01:48:06;93419.16;;;11.97;100.00
11011;BME280;5558;42.702;23.178;2023-05-22T01:50:33;93425.78;;;11.94;100.00
11011;BME280;5558;42.702;23.178;2023-05-22T01:53:07;93414.66;;;11.92;100.00
11011;BME280;5558;42.702;23.178;2023-05-22T01:55:42;93420.41;;;11.71;100.00
11011;BME280;5558;42.702;23.178;2023-05-22T01:58:33;93428.97;;;11.58;100.00
11011;BME280;5558;42.702;23.178;2023-05-22T02:01:02;93373.78;;;10.82;100.00
11011;BME280;5558;42.702;23.178;2023-05-22T02:03:32;93433.03;;;10.91;100.00
11011;BME280;5558;42.702;23.178;2023-05-22T02:06:04;93441.88;;;10.67;100.00
11011;BME280;5558;42.702;23.178;2023-05-22T02:08:32;93452.50;;;10.57;100.00
11011;BME280;5558;42.702;23.178;2023-05-22T02:11:00;93464.69;;;10.43;100.00
11011;BME280;5558;42.702;23.178;2023-05-22T02:13:29;93479.78;;;10.42;100.00
11011;BME280;5558;42.702;23.178;2023-05-22T02:15:57;93494.34;;;10.40;100.00
11011;BME280;5558;42.702;23.178;2023-05-22T02:18:25;93498.31;;;10.37;100.00
11011;BME280;5558;42.702;23.178;2023-05-22T02:20:55;93491.97;;;10.38;100.00
11011;BME280;5558;42.702;23.178;2023-05-22T02:23:22;93501.19;;;10.51;100.00
11011;BME280;5558;42.702;23.178;2023-05-22T02:25:49;93495.09;;;10.60;100.00
11011;BME280;5558;42.702;23.178;2023-05-22T02:28:16;93498.03;;;10.44;100.00
11011;BME280;5558;42.702;23.178;2023-05-22T02:30:43;93498.00;;;10.49;100.00
11011;BME280;5558;42.702;23.178;2023-05-22T02:33:10;93499.09;;;10.38;100.00
11011;BME280;5558;42.702;23.178;2023-05-22T02:35:36;93510.50;;;10.38;100.00
11011;BME280;5558;42.702;23.178;2023-05-22T02:38:05;93508.88;;;10.42;100.00
11011;BME280;5558;42.702;23.178;2023-05-22T02:40:31;93504.66;;;10.46;100.00
11011;BME280;5558;42.702;23.178;2023-05-22T02:42:58;93508.59;;;10.54;100.00
11011;BME280;5558;42.702;23.178;2023-05-22T02:45:25;93491.94;;;10.53;100.00
11011;BME280;5558;42.702;23.178;2023-05-22T02:47:52;93494.84;;;10.62;100.00
11011;BME280;5558;42.702;23.178;2023-05-22T02:50:18;93496.94;;;10.70;100.00
11011;BME280;5558;42.702;23.178;2023-05-22T02:52:45;93491.09;;;10.73;100.00
11011;BME280;5558;42.702;23.178;2023-05-22T02:55:15;93473.88;;;10.75;100.00
11011;BME280;5558;42.702;23.178;2023-05-22T02:57:42;93472.53;;;10.83;100.00
11011;BME280;5558;42.702;23.178;2023-05-22T03:00:09;93479.13;;;10.90;100.00
11011;BME280;5558;42.702;23.178;2023-05-22T03:02:36;93471.91;;;11.11;100.00
11011;BME280;5558;42.702;23.178;2023-05-22T03:05:03;93468.19;;;11.12;100.00
11011;BME280;5558;42.702;23.178;2023-05-22T03:07:30;93439.06;;;11.07;100.00
11011;BME280;5558;42.702;23.178;2023-05-22T03:09:57;93459.84;;;11.34;100.00
11011;BME280;5558;42.702;23.178;2023-05-22T03:12:25;93461.88;;;11.47;100.00
11011;BME280;5558;42.702;23.178;2023-05-22T03:14:51;93417.84;;;11.17;100.00
11011;BME280;5558;42.702;23.178;2023-05-22T03:17:18;93455.75;;;11.56;100.00
11011;BME280;5558;42.702;23.178;2023-05-22T03:19:45;93451.06;;;11.87;100.00
11011;BME280;5558;42.702;23.178;2023-05-22T03:22:12;93446.34;;;12.12;100.00
11011;BME280;5558;42.702;23.178;2023-05-22T03:24:38;93437.22;;;12.23;100.00
11011;BME280;5558;42.702;23.178;2023-05-22T03:27:05;93434.41;;;12.39;100.00
11011;BME280;5558;42.702;23.178;2023-05-22T03:29:33;93436.91;;;12.54;100.00
11011;BME280;5558;42.702;23.178;2023-05-22T03:32:00;93436.16;;;12.77;100.00
11011;BME280;5558;42.702;23.178;2023-05-22T03:34:28;93435.56;;;13.27;100.00
11011;BME280;5558;42.702;23.178;2023-05-22T03:36:56;93433.63;;;13.88;100.00
11011;BME280;5558;42.702;23.178;2023-05-22T03:39:23;93430.59;;;14.59;100.00
11011;BME280;5558;42.702;23.178;2023-05-22T03:41:50;93432.47;;;15.53;100.00
11011;BME280;5558;42.702;23.178;2023-05-22T03:44:16;93424.69;;;16.45;100.00
11011;BME280;5558;42.702;23.178;2023-05-22T03:46:45;93426.03;;;17.35;100.00
11011;BME280;5558;42.702;23.178;2023-05-22T03:49:11;93425.63;;;17.50;100.00
11011;BME280;5558;42.702;23.178;2023-05-22T03:51:38;93424.47;;;17.42;100.00
11011;BME280;5558;42.702;23.178;2023-05-22T03:54:05;93424.59;;;17.37;100.00
11011;BME280;5558;42.702;23.178;2023-05-22T03:56:31;93424.97;;;17.05;100.00
11011;BME280;5558;42.702;23.178;2023-05-22T03:58:58;93423.63;;;16.77;100.00
11011;BME280;5558;42.702;23.178;2023-05-22T04:01:25;93423.84;;;16.58;100.00
11011;BME280;5558;42.702;23.178;2023-05-22T04:03:53;93396.84;;;16.68;100.00
11011;BME280;5558;42.702;23.178;2023-05-22T04:06:20;93434.28;;;17.08;100.00
11011;BME280;5558;42.702;23.178;2023-05-22T04:08:47;93429.22;;;16.97;100.00
11011;BME280;5558;42.702;23.178;2023-05-22T04:11:14;93426.19;;;16.90;100.00
11011;BME280;5558;42.702;23.178;2023-05-22T04:13:41;93425.75;;;16.97;100.00
11011;BME280;5558;42.702;23.178;2023-05-22T04:16:08;93422.84;;;17.89;100.00
11011;BME280;5558;42.702;23.178;2023-05-22T04:18:34;93425.56;;;19.32;85.59
11011;BME280;5558;42.702;23.178;2023-05-22T04:21:03;93418.81;;;20.38;77.76
11011;BME280;5558;42.702;23.178;2023-05-22T04:23:32;93424.31;;;21.19;69.64
11011;BME280;5558;42.702;23.178;2023-05-22T04:25:59;93425.75;;;21.89;63.78
11011;BME280;5558;42.702;23.178;2023-05-22T04:28:26;93431.69;;;22.46;59.80
11011;BME280;5558;42.702;23.178;2023-05-22T04:30:54;93425.16;;;22.47;58.67
11011;BME280;5558;42.702;23.178;2023-05-22T04:33:21;93436.16;;;22.14;59.53
11011;BME280;5558;42.702;23.178;2023-05-22T04:35:48;93433.19;;;21.92;58.38
11011;BME280;5558;42.702;23.178;2023-05-22T04:38:17;93430.13;;;22.05;58.24
11011;BME280;5558;42.702;23.178;2023-05-22T04:40:46;93431.28;;;21.56;57.95
11011;BME280;5558;42.702;23.178;2023-05-22T04:43:13;93434.97;;;21.63;58.07
11011;BME280;5558;42.702;23.178;2023-05-22T04:45:43;93441.34;;;22.07;56.10
11011;BME280;5558;42.702;23.178;2023-05-22T04:48:09;93442.25;;;22.51;55.77
11011;BME280;5558;42.702;23.178;2023-05-22T04:50:36;93435.00;;;22.67;55.82
11011;BME280;5558;42.702;23.178;2023-05-22T04:53:03;93443.75;;;23.07;55.13
11011;BME280;5558;42.702;23.178;2023-05-22T04:55:31;93448.28;;;24.47;50.24
11011;BME280;5558;42.702;23.178;2023-05-22T04:57:59;93450.53;;;26.41;44.35
11011;BME280;5558;42.702;23.178;2023-05-22T05:00:25;93455.22;;;28.34;40.11
11011;BME280;5558;42.702;23.178;2023-05-22T05:02:53;93453.41;;;30.37;36.24
11011;BME280;5558;42.702;23.178;2023-05-22T05:05:21;93461.84;;;31.78;32.53
11011;BME280;5558;42.702;23.178;2023-05-22T05:07:48;93460.91;;;32.83;29.64
11011;BME280;5558;42.702;23.178;2023-05-22T05:10:16;93464.81;;;33.53;28.60
11011;BME280;5558;42.702;23.178;2023-05-22T05:12:44;93439.47;;;34.65;26.72
11011;BME280;5558;42.702;23.178;2023-05-22T05:15:11;93452.06;;;35.64;26.03
11011;BME280;5558;42.702;23.178;2023-05-22T05:17:37;93458.69;;;36.18;24.96
11011;BME280;5558;42.702;23.178;2023-05-22T05:20:06;93467.00;;;36.50;24.29
11011;BME280;5558;42.702;23.178;2023-05-22T05:22:33;93458.53;;;36.09;24.06
11011;BME280;5558;42.702;23.178;2023-05-22T05:25:00;93463.25;;;36.08;23.77
11011;BME280;5558;42.702;23.178;2023-05-22T05:27:28;93458.34;;;36.16;23.57
11011;BME280;5558;42.702;23.178;2023-05-22T05:29:56;93464.41;;;35.39;24.22
11011;BME280;5558;42.702;23.178;2023-05-22T05:32:22;93462.44;;;35.40;24.45
11011;BME280;5558;42.702;23.178;2023-05-22T05:34:49;93461.78;;;35.68;23.89
11011;BME280;5558;42.702;23.178;2023-05-22T05:37:16;93461.59;;;35.95;23.41
11011;BME280;5558;42.702;23.178;2023-05-22T05:39:43;93466.75;;;35.93;24.06
11011;BME280;5558;42.702;23.178;2023-05-22T05:42:09;93465.94;;;36.44;23.49
11011;BME280;5558;42.702;23.178;2023-05-22T05:44:36;93462.91;;;36.06;23.32
11011;BME280;5558;42.702;23.178;2023-05-22T05:47:04;93464.44;;;35.91;24.03
11011;BME280;5558;42.702;23.178;2023-05-22T05:49:31;93466.50;;;35.51;23.92
11011;BME280;5558;42.702;23.178;2023-05-22T05:51:58;93464.78;;;35.93;23.66
11011;BME280;5558;42.702;23.178;2023-05-22T05:54:25;93465.50;;;36.29;23.15
11011;BME280;5558;42.702;23.178;2023-05-22T05:56:52;93475.22;;;37.27;22.16
11011;BME280;5558;42.702;23.178;2023-05-22T05:59:18;93480.69;;;37.55;21.90
11011;BME280;5558;42.702;23.178;2023-05-22T06:01:46;93476.97;;;37.05;22.15
11011;BME280;5558;42.702;23.178;2023-05-22T06:04:15;93479.09;;;37.83;22.27
11011;BME280;5558;42.702;23.178;2023-05-22T06:06:42;93473.97;;;38.57;21.61
11011;BME280;5558;42.702;23.178;2023-05-22T06:09:08;93472.53;;;38.65;20.56
11011;BME280;5558;42.702;23.178;2023-05-22T06:11:35;93468.03;;;39.27;20.50
11011;BME280;5558;42.702;23.178;2023-05-22T06:14:03;93436.97;;;39.10;19.55
11011;BME280;5558;42.702;23.178;2023-05-22T06:16:31;93470.47;;;38.90;20.11
11011;BME280;5558;42.702;23.178;2023-05-22T06:18:58;93469.38;;;38.88;20.21
11011;BME280;5558;42.702;23.178;2023-05-22T06:21:26;93468.97;;;38.77;20.83
11011;BME280;5558;42.702;23.178;2023-05-22T06:23:53;93469.03;;;38.02;20.33
11011;BME280;5558;42.702;23.178;2023-05-22T06:26:19;93466.44;;;37.16;21.72
11011;BME280;5558;42.702;23.178;2023-05-22T06:28:47;93465.19;;;37.33;21.65
11011;BME280;5558;42.702;23.178;2023-05-22T06:31:15;93476.38;;;37.67;20.75
11011;BME280;5558;42.702;23.178;2023-05-22T06:33:42;93480.19;;;37.03;21.25
11011;BME280;5558;42.702;23.178;2023-05-22T06:36:09;93463.91;;;36.93;21.25
11011;BME280;5558;42.702;23.178;2023-05-22T06:38:39;93463.44;;;34.64;23.14
11011;BME280;5558;42.702;23.178;2023-05-22T06:41:06;93465.91;;;32.55;25.58
11011;BME280;5558;42.702;23.178;2023-05-22T06:43:32;93456.84;;;30.83;29.39
11011;BME280;5558;42.702;23.178;2023-05-22T06:45:59;93460.25;;;27.38;32.67
11011;BME280;5558;42.702;23.178;2023-05-22T06:48:26;93431.44;;;26.64;35.33
11011;BME280;5558;42.702;23.178;2023-05-22T06:50:53;93422.78;;;25.08;36.18
11011;BME280;5558;42.702;23.178;2023-05-22T06:53:19;93457.66;;;24.34;37.86
11011;BME280;5558;42.702;23.178;2023-05-22T06:55:49;93457.16;;;23.78;39.79
11011;BME280;5558;42.702;23.178;2023-05-22T06:58:16;93461.34;;;23.75;39.17
11011;BME280;5558;42.702;23.178;2023-05-22T07:00:43;93461.78;;;24.28;38.38
11011;BME280;5558;42.702;23.178;2023-05-22T07:03:10;93459.50;;;25.25;37.18
11011;BME280;5558;42.702;23.178;2023-05-22T07:05:36;93460.50;;;26.07;36.19
11011;BME280;5558;42.702;23.178;2023-05-22T07:08:03;93463.78;;;25.94;35.86
11011;BME280;5558;42.702;23.178;2023-05-22T07:10:30;93465.44;;;25.11;36.81
11011;BME280;5558;42.702;23.178;2023-05-22T07:12:58;93458.13;;;24.93;37.23
11011;BME280;5558;42.702;23.178;2023-05-22T07:15:25;93465.16;;;24.97;37.45
11011;BME280;5558;42.702;23.178;2023-05-22T07:17:52;93461.34;;;24.79;39.02
11011;BME280;5558;42.702;23.178;2023-05-22T07:20:18;93466.91;;;23.51;40.29
11011;BME280;5558;42.702;23.178;2023-05-22T07:22:45;93456.44;;;23.34;40.90
11011;BME280;5558;42.702;23.178;2023-05-22T07:25:12;93454.50;;;23.19;41.40
11011;BME280;5558;42.702;23.178;2023-05-22T07:27:38;93454.66;;;23.11;40.82
11011;BME280;5558;42.702;23.178;2023-05-22T07:30:08;93456.50;;;22.51;41.58
11011;BME280;5558;42.702;23.178;2023-05-22T07:32:35;93455.63;;;21.96;43.23
11011;BME280;5558;42.702;23.178;2023-05-22T07:35:01;93450.34;;;21.75;43.41
11011;BME280;5558;42.702;23.178;2023-05-22T07:37:29;93451.94;;;21.64;44.10
11011;BME280;5558;42.702;23.178;2023-05-22T07:39:56;93445.97;;;21.95;44.83
11011;BME280;5558;42.702;23.178;2023-05-22T07:42:22;93449.97;;;22.13;44.01
11011;BME280;5558;42.702;23.178;2023-05-22T07:44:50;93442.06;;;22.32;43.87
11011;BME280;5558;42.702;23.178;2023-05-22T07:47:18;93451.22;;;22.15;42.37
11011;BME280;5558;42.702;23.178;2023-05-22T07:49:45;93416.41;;;22.10;42.23
11011;BME280;5558;42.702;23.178;2023-05-22T07:52:11;93445.97;;;22.74;41.62
11011;BME280;5558;42.702;23.178;2023-05-22T07:54:38;93444.28;;;22.81;40.42
11011;BME280;5558;42.702;23.178;2023-05-22T07:57:05;93447.09;;;21.94;40.86
11011;BME280;5558;42.702;23.178;2023-05-22T07:59:32;93442.84;;;21.93;41.39
11011;BME280;5558;42.702;23.178;2023-05-22T08:02:00;93430.38;;;22.28;42.95
11011;BME280;5558;42.702;23.178;2023-05-22T08:04:28;93439.09;;;22.49;42.94
11011;BME280;5558;42.702;23.178;2023-05-22T08:06:55;93439.59;;;22.39;45.30
11011;BME280;5558;42.702;23.178;2023-05-22T08:09:22;93443.13;;;22.43;42.62
11011;BME280;5558;42.702;23.178;2023-05-22T08:11:48;93442.72;;;22.96;43.57
11011;BME280;5558;42.702;23.178;2023-05-22T08:14:15;93447.41;;;22.99;41.79
11011;BME280;5558;42.702;23.178;2023-05-22T08:16:42;93451.09;;;23.22;41.23
11011;BME280;5558;42.702;23.178;2023-05-22T08:19:08;93438.78;;;22.93;41.36
11011;BME280;5558;42.702;23.178;2023-05-22T08:21:37;93442.59;;;23.20;40.17
11011;BME280;5558;42.702;23.178;2023-05-22T08:24:05;93447.81;;;23.75;39.81
11011;BME280;5558;42.702;23.178;2023-05-22T08:26:31;93448.84;;;23.86;40.57
11011;BME280;5558;42.702;23.178;2023-05-22T08:28:58;93437.75;;;24.07;41.06
11011;BME280;5558;42.702;23.178;2023-05-22T08:31:25;93445.41;;;24.05;39.54
11011;BME280;5558;42.702;23.178;2023-05-22T08:33:53;93446.88;;;23.52;40.44
11011;BME280;5558;42.702;23.178;2023-05-22T08:36:26;93443.28;;;21.95;41.62
11011;BME280;5558;42.702;23.178;2023-05-22T08:38:55;93447.97;;;22.77;39.54
11011;BME280;5558;42.702;23.178;2023-05-22T08:41:22;93440.13;;;21.93;41.87
11011;BME280;5558;42.702;23.178;2023-05-22T08:43:49;93433.06;;;22.00;44.87
11011;BME280;5558;42.702;23.178;2023-05-22T08:46:17;93447.19;;;21.97;44.61
11011;BME280;5558;42.702;23.178;2023-05-22T08:48:44;93435.66;;;21.48;42.83
11011;BME280;5558;42.702;23.178;2023-05-22T08:51:12;93437.78;;;21.43;41.94
11011;BME280;5558;42.702;23.178;2023-05-22T08:53:41;93436.97;;;21.06;44.66
11011;BME280;5558;42.702;23.178;2023-05-22T08:56:11;93446.22;;;20.31;43.96
11011;BME280;5558;42.702;23.178;2023-05-22T08:58:38;93442.81;;;20.43;46.28
11011;BME280;5558;42.702;23.178;2023-05-22T09:01:06;93443.22;;;20.12;47.06
11011;BME280;5558;42.702;23.178;2023-05-22T09:03:34;93439.56;;;20.17;44.35
11011;BME280;5558;42.702;23.178;2023-05-22T09:06:02;93430.31;;;20.59;44.99
11011;BME280;5558;42.702;23.178;2023-05-22T09:08:33;93433.97;;;20.87;45.54
11011;BME280;5558;42.702;23.178;2023-05-22T09:11:01;93436.16;;;21.06;45.43
11011;BME280;5558;42.702;23.178;2023-05-22T09:13:30;93389.59;;;20.81;43.55
11011;BME280;5558;42.702;23.178;2023-05-22T09:15:58;93427.34;;;21.41;40.14
11011;BME280;5558;42.702;23.178;2023-05-22T09:18:26;93431.28;;;21.44;41.21
11011;BME280;5558;42.702;23.178;2023-05-22T09:20:56;93431.03;;;21.13;38.25
11011;BME280;5558;42.702;23.178;2023-05-22T09:23:26;93420.75;;;20.94;40.63
11011;BME280;5558;42.702;23.178;2023-05-22T09:25:54;93425.03;;;20.95;40.94
11011;BME280;5558;42.702;23.178;2023-05-22T09:28:21;93428.47;;;20.72;42.67
11011;BME280;5558;42.702;23.178;2023-05-22T09:30:50;93430.94;;;20.03;43.03
11011;BME280;5558;42.702;23.178;2023-05-22T09:33:17;93430.16;;;19.82;45.81
11011;BME280;5558;42.702;23.178;2023-05-22T09:35:45;93437.47;;;19.73;44.58
11011;BME280;5558;42.702;23.178;2023-05-22T09:38:12;93430.97;;;19.74;44.50
11011;BME280;5558;42.702;23.178;2023-05-22T09:40:40;93427.72;;;19.68;45.77
11011;BME280;5558;42.702;23.178;2023-05-22T09:43:07;93427.41;;;19.40;44.05
11011;BME280;5558;42.702;23.178;2023-05-22T09:45:34;93430.91;;;19.62;44.68
11011;BME280;5558;42.702;23.178;2023-05-22T09:48:02;93439.72;;;19.91;44.43
11011;BME280;5558;42.702;23.178;2023-05-22T09:50:30;93427.72;;;20.09;45.01
11011;BME280;5558;42.702;23.178;2023-05-22T09:53:00;93434.69;;;20.10;46.28
11011;BME280;5558;42.702;23.178;2023-05-22T09:55:27;93437.19;;;20.36;46.37
11011;BME280;5558;42.702;23.178;2023-05-22T09:57:55;93424.72;;;20.64;45.74
11011;BME280;5558;42.702;23.178;2023-05-22T10:00:23;93414.84;;;21.01;45.55
11011;BME280;5558;42.702;23.178;2023-05-22T10:02:56;93420.16;;;21.21;45.67
11011;BME280;5558;42.702;23.178;2023-05-22T10:05:29;93417.63;;;20.92;43.89
11011;BME280;5558;42.702;23.178;2023-05-22T10:08:01;93428.47;;;20.84;44.51
11011;BME280;5558;42.702;23.178;2023-05-22T10:10:31;93409.84;;;20.79;44.57
11011;BME280;5558;42.702;23.178;2023-05-22T10:13:00;93431.72;;;20.77;44.82
11011;BME280;5558;42.702;23.178;2023-05-22T10:15:27;93430.56;;;20.66;45.24
11011;BME280;5558;42.702;23.178;2023-05-22T10:17:55;93433.78;;;20.27;45.77
11011;BME280;5558;42.702;23.178;2023-05-22T10:20:25;93428.00;;;20.37;45.97
11011;BME280;5558;42.702;23.178;2023-05-22T10:22:54;93425.63;;;20.35;47.35
11011;BME280;5558;42.702;23.178;2023-05-22T10:25:21;93431.81;;;20.15;47.20
11011;BME280;5558;42.702;23.178;2023-05-22T10:27:51;93436.03;;;19.96;50.59
11011;BME280;5558;42.702;23.178;2023-05-22T10:30:22;93420.34;;;20.27;47.72
11011;BME280;5558;42.702;23.178;2023-05-22T10:32:55;93432.91;;;20.14;47.50
11011;BME280;5558;42.702;23.178;2023-05-22T10:35:28;93427.59;;;19.85;48.58
11011;BME280;5558;42.702;23.178;2023-05-22T10:38:07;93414.44;;;19.72;50.79
11011;BME280;5558;42.702;23.178;2023-05-22T10:40:37;93425.88;;;20.01;51.81
11011;BME280;5558;42.702;23.178;2023-05-22T10:43:04;93438.72;;;19.96;50.90
11011;BME280;5558;42.702;23.178;2023-05-22T10:45:31;93431.06;;;20.06;49.14
11011;BME280;5558;42.702;23.178;2023-05-22T10:48:02;93428.72;;;20.05;50.93
11011;BME280;5558;42.702;23.178;2023-05-22T10:50:29;93425.69;;;19.65;53.78
11011;BME280;5558;42.702;23.178;2023-05-22T10:53:19;93424.91;;;19.35;54.24
11011;BME280;5558;42.702;23.178;2023-05-22T10:55:47;93430.53;;;19.05;56.81
11011;BME280;5558;42.702;23.178;2023-05-22T10:58:14;93432.28;;;18.46;59.90
11011;BME280;5558;42.702;23.178;2023-05-22T11:00:41;93447.84;;;17.76;60.48
11011;BME280;5558;42.702;23.178;2023-05-22T11:03:08;93453.34;;;17.62;67.03
11011;BME280;5558;42.702;23.178;2023-05-22T11:05:36;93454.97;;;16.41;95.99
11011;BME280;5558;42.702;23.178;2023-05-22T11:08:11;93470.81;;;15.03;100.00
11011;BME280;5558;42.702;23.178;2023-05-22T11:10:52;93455.94;;;14.70;100.00
11011;BME280;5558;42.702;23.178;2023-05-22T11:13:19;93453.50;;;14.87;100.00
11011;BME280;5558;42.702;23.178;2023-05-22T11:15:47;93447.47;;;15.22;100.00
11011;BME280;5558;42.702;23.178;2023-05-22T11:18:14;93439.22;;;15.73;100.00
11011;BME280;5558;42.702;23.178;2023-05-22T11:20:42;93441.88;;;16.31;100.00
11011;BME280;5558;42.702;23.178;2023-05-22T11:23:10;93432.34;;;16.91;100.00
11011;BME280;5558;42.702;23.178;2023-05-22T11:25:39;93440.88;;;17.49;100.00
11011;BME280;5558;42.702;23.178;2023-05-22T11:28:07;93434.16;;;18.03;100.00
11011;BME280;5558;42.702;23.178;2023-05-22T11:30:35;93420.94;;;18.41;100.00
11011;BME280;5558;42.702;23.178;2023-05-22T11:33:03;93423.50;;;18.83;100.00
11011;BME280;5558;42.702;23.178;2023-05-22T11:35:30;93408.09;;;19.09;100.00
11011;BME280;5558;42.702;23.178;2023-05-22T11:37:57;93412.19;;;19.15;94.23
11011;BME280;5558;42.702;23.178;2023-05-22T11:40:26;93408.06;;;19.18;83.12
11011;BME280;5558;42.702;23.178;2023-05-22T11:42:54;93411.34;;;19.32;86.88
11011;BME280;5558;42.702;23.178;2023-05-22T11:45:22;93415.75;;;19.57;88.91
11011;BME280;5558;42.702;23.178;2023-05-22T11:47:49;93426.59;;;19.69;85.68
11011;BME280;5558;42.702;23.178;2023-05-22T11:50:16;93445.50;;;19.52;76.14
11011;BME280;5558;42.702;23.178;2023-05-22T11:52:43;93461.41;;;18.05;87.20
11011;BME280;5558;42.702;23.178;2023-05-22T11:55:10;93489.66;;;15.61;100.00
11011;BME280;5558;42.702;23.178;2023-05-22T11:57:37;93480.63;;;14.76;100.00
11011;BME280;5558;42.702;23.178;2023-05-22T12:00:06;93493.34;;;14.33;100.00
11011;BME280;5558;42.702;23.178;2023-05-22T12:02:34;93511.25;;;13.90;100.00
11011;BME280;5558;42.702;23.178;2023-05-22T12:05:01;93525.28;;;13.59;100.00
11011;BME280;5558;42.702;23.178;2023-05-22T12:07:28;93542.28;;;13.39;100.00
11011;BME280;5558;42.702;23.178;2023-05-22T12:09:56;93547.25;;;13.45;100.00
11011;BME280;5558;42.702;23.178;2023-05-22T12:12:23;93552.16;;;13.57;100.00
11011;BME280;5558;42.702;23.178;2023-05-22T12:14:50;93556.22;;;13.73;100.00
11011;BME280;5558;42.702;23.178;2023-05-22T12:17:17;93544.00;;;13.91;100.00
11011;BME280;5558;42.702;23.178;2023-05-22T12:19:46;93542.56;;;14.17;100.00
11011;BME280;5558;42.702;23.178;2023-05-22T12:22:13;93543.78;;;14.43;100.00
11011;BME280;5558;42.702;23.178;2023-05-22T12:24:41;93533.38;;;14.60;100.00
11011;BME280;5558;42.702;23.178;2023-05-22T12:27:10;93516.31;;;14.93;100.00
11011;BME280;5558;42.702;23.178;2023-05-22T12:29:38;93506.53;;;15.16;100.00
11011;BME280;5558;42.702;23.178;2023-05-22T12:32:06;93495.13;;;15.42;100.00
11011;BME280;5558;42.702;23.178;2023-05-22T12:34:34;93487.00;;;15.61;100.00
11011;BME280;5558;42.702;23.178;2023-05-22T12:37:03;93470.06;;;15.79;100.00
11011;BME280;5558;42.702;23.178;2023-05-22T12:39:29;93469.84;;;16.11;100.00
11011;BME280;5558;42.702;23.178;2023-05-22T12:41:57;93459.06;;;16.38;100.00
11011;BME280;5558;42.702;23.178;2023-05-22T12:44:25;93454.28;;;16.49;100.00
11011;BME280;5558;42.702;23.178;2023-05-22T12:46:51;93454.59;;;16.34;100.00
11011;BME280;5558;42.702;23.178;2023-05-22T12:49:18;93453.91;;;16.20;100.00
11011;BME280;5558;42.702;23.178;2023-05-22T12:51:45;93449.44;;;16.15;100.00
11011;BME280;5558;42.702;23.178;2023-05-22T12:54:13;93444.22;;;16.32;100.00
11011;BME280;5558;42.702;23.178;2023-05-22T12:56:40;93447.03;;;16.27;100.00
11011;BME280;5558;42.702;23.178;2023-05-22T12:59:07;93441.38;;;16.29;100.00